createdAt,value
2022-08-29T00:01:13.691Z,47.78
2022-08-29T00:03:41.254Z,47.88
2022-08-29T00:06:10.691Z,47.58
2022-08-29T00:08:37.812Z,47.59
2022-08-29T00:11:06.762Z,47.91
2022-08-29T00:13:35.066Z,47.93
2022-08-29T00:16:02.035Z,47.81
2022-08-29T00:18:29.516Z,47.80
2022-08-29T00:20:56.463Z,47.90
2022-08-29T00:23:23.337Z,48.13
2022-08-29T00:25:50.374Z,48.33
2022-08-29T00:28:17.375Z,48.67
2022-08-29T00:30:44.494Z,48.52
2022-08-29T00:33:12.834Z,48.43
2022-08-29T00:35:42.744Z,48.92
2022-08-29T00:38:13.135Z,49.29
2022-08-29T00:40:53.700Z,49.27
2022-08-29T00:43:30.528Z,49.21
2022-08-29T00:46:38.813Z,49.14
2022-08-29T00:49:39.147Z,48.77
2022-08-29T00:52:29.594Z,49.42
2022-08-29T00:54:56.973Z,49.25
2022-08-29T00:57:26.417Z,49.64
2022-08-29T00:59:53.351Z,49.60
2022-08-29T01:02:21.041Z,49.81
2022-08-29T01:04:48.035Z,49.68
2022-08-29T01:07:15.446Z,49.61
2022-08-29T01:09:46.846Z,49.39
2022-08-29T01:12:15.757Z,49.43
2022-08-29T01:14:55.224Z,49.40
2022-08-29T01:17:28.997Z,49.85
2022-08-29T01:20:19.325Z,49.55
2022-08-29T01:23:33.655Z,49.97
2022-08-29T01:26:02.942Z,49.84
2022-08-29T01:28:38.859Z,49.97
2022-08-29T01:31:38.654Z,50.04
2022-08-29T01:34:04.481Z,49.79
2022-08-29T01:36:50.932Z,49.66
2022-08-29T01:39:23.775Z,50.13
2022-08-29T01:41:51.771Z,50.16
2022-08-29T01:44:21.347Z,50.42
2022-08-29T01:46:51.555Z,50.55
2022-08-29T01:49:21.316Z,50.49
2022-08-29T01:51:48.576Z,50.15
2022-08-29T01:54:16.623Z,49.80
2022-08-29T01:56:48.695Z,50.10
2022-08-29T01:59:20.198Z,50.55
2022-08-29T02:01:57.204Z,50.46
2022-08-29T02:04:24.452Z,51.09
2022-08-29T02:06:52.501Z,50.82
2022-08-29T02:09:19.718Z,50.80
2022-08-29T02:11:48.202Z,51.07
2022-08-29T02:14:19.104Z,50.78
2022-08-29T02:16:48.347Z,51.37
2022-08-29T02:19:16.214Z,51.49
2022-08-29T02:21:44.372Z,51.34
2022-08-29T02:24:24.825Z,51.27
2022-08-29T02:26:55.334Z,51.21
2022-08-29T02:29:23.079Z,51.14
2022-08-29T02:31:50.122Z,51.10
2022-08-29T02:34:17.972Z,51.13
2022-08-29T02:36:45.012Z,51.69
2022-08-29T02:39:16.322Z,51.25
2022-08-29T02:41:44.453Z,51.67
2022-08-29T02:44:12.358Z,51.52
2022-08-29T02:46:39.382Z,51.19
2022-08-29T02:49:06.685Z,51.59
2022-08-29T02:51:34.889Z,51.47
2022-08-29T02:54:02.564Z,51.85
2022-08-29T02:56:30.376Z,52.20
2022-08-29T02:58:58.233Z,52.24
2022-08-29T03:01:27.184Z,52.11
2022-08-29T03:03:54.565Z,52.23
2022-08-29T03:06:22.108Z,52.46
2022-08-29T03:08:50.619Z,52.70
2022-08-29T03:11:18.212Z,52.79
2022-08-29T03:13:46.153Z,53.38
2022-08-29T03:16:14.022Z,53.22
2022-08-29T03:18:41.617Z,52.88
2022-08-29T03:21:20.378Z,52.84
2022-08-29T03:23:48.872Z,52.86
2022-08-29T03:26:16.536Z,52.76
2022-08-29T03:28:43.929Z,52.84
2022-08-29T03:31:11.437Z,52.46
2022-08-29T03:33:38.879Z,52.31
2022-08-29T03:36:14.572Z,52.77
2022-08-29T03:38:46.398Z,52.76
2022-08-29T03:41:22.431Z,53.07
2022-08-29T03:43:49.464Z,52.88
2022-08-29T03:46:16.552Z,52.65
2022-08-29T03:48:43.477Z,53.43
2022-08-29T03:51:10.647Z,52.67
2022-08-29T03:53:37.672Z,52.45
2022-08-29T03:56:06.428Z,53.26
2022-08-29T03:58:34.361Z,53.27
2022-08-29T04:01:01.786Z,53.09
2022-08-29T04:03:31.403Z,53.31
2022-08-29T04:05:59.525Z,54.00
2022-08-29T04:08:26.748Z,53.70
2022-08-29T04:10:53.703Z,53.92
2022-08-29T04:13:20.704Z,53.87
2022-08-29T04:15:47.689Z,53.57
2022-08-29T04:18:15.655Z,54.27
2022-08-29T04:20:48.461Z,54.24
2022-08-29T04:23:15.885Z,53.85
2022-08-29T04:25:44.432Z,54.04
2022-08-29T04:28:14.637Z,53.80
2022-08-29T04:30:51.861Z,53.69
2022-08-29T04:33:23.263Z,53.56
2022-08-29T04:35:52.042Z,54.21
2022-08-29T04:38:19.939Z,54.75
2022-08-29T04:40:46.987Z,54.08
2022-08-29T04:43:13.900Z,54.08
2022-08-29T04:45:41.415Z,54.17
2022-08-29T04:48:10.611Z,53.79
2022-08-29T04:50:37.532Z,53.73
2022-08-29T04:53:04.399Z,53.96
2022-08-29T04:55:31.343Z,53.35
2022-08-29T04:57:58.265Z,52.93
2022-08-29T05:00:28.546Z,53.00
2022-08-29T05:02:57.356Z,52.84
2022-08-29T05:05:26.577Z,52.40
2022-08-29T05:07:53.798Z,52.57
2022-08-29T05:10:22.493Z,52.53
2022-08-29T05:12:52.599Z,52.48
2022-08-29T05:15:27.078Z,52.35
2022-08-29T05:17:54.986Z,51.85
2022-08-29T05:20:22.105Z,51.79
2022-08-29T05:22:54.153Z,51.62
2022-08-29T05:25:21.306Z,51.45
2022-08-29T05:27:48.247Z,51.25
2022-08-29T05:30:34.717Z,50.54
2022-08-29T05:33:05.972Z,50.20
2022-08-29T05:35:34.534Z,49.73
2022-08-29T05:38:09.198Z,49.94
2022-08-29T05:40:37.912Z,49.59
2022-08-29T05:43:06.487Z,49.60
2022-08-29T05:45:33.487Z,49.79
2022-08-29T05:48:05.667Z,49.91
2022-08-29T05:50:32.586Z,49.98
2022-08-29T05:52:59.447Z,49.88
2022-08-29T05:55:26.304Z,49.90
2022-08-29T05:57:54.441Z,49.99
2022-08-29T06:00:21.467Z,50.33
2022-08-29T06:02:48.559Z,49.66
2022-08-29T06:05:18.541Z,49.92
2022-08-29T06:07:45.401Z,50.00
2022-08-29T06:10:12.389Z,49.53
2022-08-29T06:12:39.259Z,48.27
2022-08-29T06:15:07.226Z,45.08
2022-08-29T06:17:35.169Z,43.89
2022-08-29T06:20:02.263Z,43.04
2022-08-29T06:22:29.163Z,39.47
2022-08-29T06:24:57.789Z,36.64
2022-08-29T06:27:25.420Z,34.61
2022-08-29T06:29:52.474Z,32.31
2022-08-29T06:32:19.426Z,30.85
2022-08-29T06:34:46.341Z,29.52
2022-08-29T06:37:13.247Z,28.63
2022-08-29T06:39:40.633Z,27.25
2022-08-29T06:42:07.658Z,26.91
2022-08-29T06:44:34.975Z,25.77
2022-08-29T06:47:02.462Z,25.80
2022-08-29T06:49:29.798Z,24.49
2022-08-29T06:51:58.334Z,23.29
2022-08-29T06:54:28.445Z,23.09
2022-08-29T06:56:57.586Z,22.24
2022-08-29T06:59:24.806Z,22.67
2022-08-29T07:01:52.231Z,21.81
2022-08-29T07:04:20.946Z,21.28
2022-08-29T07:06:49.091Z,21.11
2022-08-29T07:09:16.333Z,21.03
2022-08-29T07:11:43.965Z,20.59
2022-08-29T07:14:12.310Z,21.24
2022-08-29T07:16:40.710Z,21.57
2022-08-29T07:19:10.141Z,21.91
2022-08-29T07:21:37.917Z,21.48
2022-08-29T07:24:05.740Z,21.33
2022-08-29T07:26:38.854Z,21.36
2022-08-29T07:29:16.187Z,22.44
2022-08-29T07:31:43.587Z,22.23
2022-08-29T07:34:10.806Z,22.45
2022-08-29T07:36:38.299Z,22.77
2022-08-29T07:39:12.816Z,22.86
2022-08-29T07:41:41.889Z,23.47
2022-08-29T07:44:09.367Z,23.87
2022-08-29T07:46:37.245Z,23.99
2022-08-29T07:49:04.906Z,23.82
2022-08-29T07:51:32.109Z,24.50
2022-08-29T07:53:59.250Z,25.02
2022-08-29T07:56:37.760Z,24.63
2022-08-29T07:59:06.413Z,24.84
2022-08-29T08:01:34.541Z,24.35
2022-08-29T08:04:01.586Z,24.14
2022-08-29T08:06:28.667Z,23.51
2022-08-29T08:08:57.542Z,24.56
2022-08-29T08:11:26.547Z,24.39
2022-08-29T08:13:55.834Z,23.60
2022-08-29T08:16:26.427Z,24.57
2022-08-29T08:18:54.769Z,24.00
2022-08-29T08:21:22.441Z,23.06
2022-08-29T08:23:49.504Z,22.88
2022-08-29T08:26:17.306Z,22.75
2022-08-29T08:28:45.655Z,21.57
2022-08-29T08:31:15.118Z,21.34
2022-08-29T08:33:44.106Z,22.13
2022-08-29T08:36:16.911Z,21.45
2022-08-29T08:38:44.257Z,22.90
2022-08-29T08:41:57.046Z,22.06
2022-08-29T08:44:26.912Z,22.36
2022-08-29T08:47:01.596Z,21.54
2022-08-29T08:49:54.463Z,22.28
2022-08-29T08:52:58.705Z,22.95
2022-08-29T08:55:49.650Z,22.84
2022-08-29T08:58:28.926Z,22.11
2022-08-29T09:01:20.380Z,21.34
2022-08-29T09:04:05.540Z,20.13
2022-08-29T09:07:04.093Z,19.82
2022-08-29T09:09:48.384Z,20.12
2022-08-29T09:12:21.175Z,19.78
2022-08-29T09:15:07.417Z,19.50
2022-08-29T09:18:07.840Z,20.00
2022-08-29T09:20:38.676Z,19.99
2022-08-29T09:23:51.971Z,19.16
2022-08-29T09:26:21.910Z,18.67
2022-08-29T09:28:49.546Z,18.07
2022-08-29T09:31:33.241Z,16.62
2022-08-29T09:34:12.010Z,16.01
2022-08-29T09:36:47.773Z,15.63
2022-08-29T09:39:31.235Z,15.40
2022-08-29T09:42:21.459Z,15.67
2022-08-29T09:45:18.253Z,14.50
2022-08-29T09:47:45.612Z,13.57
2022-08-29T09:50:26.587Z,13.76
2022-08-29T09:53:03.145Z,12.82
2022-08-29T09:55:42.317Z,12.67
2022-08-29T09:58:18.347Z,12.00
2022-08-29T10:01:11.836Z,12.50
2022-08-29T10:03:57.076Z,11.32
2022-08-29T10:06:32.402Z,11.04
2022-08-29T10:09:01.271Z,11.42
2022-08-29T10:11:47.479Z,11.28
2022-08-29T10:14:36.452Z,11.04
2022-08-29T10:17:36.279Z,12.45
2022-08-29T10:20:05.209Z,11.59
2022-08-29T10:23:05.023Z,12.16
2022-08-29T10:25:41.979Z,12.71
2022-08-29T10:28:23.516Z,13.93
2022-08-29T10:31:08.805Z,15.78
2022-08-29T10:33:58.572Z,17.51
2022-08-29T10:36:33.717Z,20.89
2022-08-29T10:39:19.225Z,22.27
2022-08-29T10:42:09.717Z,23.94
2022-08-29T10:45:27.836Z,25.09
2022-08-29T10:48:19.836Z,27.09
2022-08-29T10:51:04.201Z,27.45
2022-08-29T10:53:38.821Z,28.87
2022-08-29T10:56:23.599Z,29.70
2022-08-29T10:59:18.447Z,30.08
2022-08-29T11:02:08.604Z,30.50
2022-08-29T11:04:51.054Z,30.61
2022-08-29T11:07:26.657Z,30.49
2022-08-29T11:10:07.074Z,31.22
2022-08-29T11:13:10.312Z,31.48
2022-08-29T11:15:43.111Z,32.04
2022-08-29T11:18:24.814Z,31.80
2022-08-29T11:21:13.468Z,32.97
2022-08-29T11:23:48.771Z,33.28
2022-08-29T11:26:46.182Z,33.48
2022-08-29T11:29:40.690Z,33.51
2022-08-29T11:32:33.577Z,33.15
2022-08-29T11:35:21.259Z,33.99
2022-08-29T11:38:29.509Z,34.02
2022-08-29T11:41:29.960Z,34.14
2022-08-29T11:44:27.100Z,34.29
2022-08-29T11:46:56.575Z,33.87
2022-08-29T11:49:49.405Z,34.57
2022-08-29T11:52:26.417Z,34.39
2022-08-29T11:55:34.061Z,34.35
2022-08-29T11:58:23.003Z,34.72
2022-08-29T12:01:00.081Z,34.36
2022-08-29T12:03:33.163Z,34.14
2022-08-29T12:06:22.344Z,34.44
2022-08-29T12:09:04.829Z,34.33
2022-08-29T12:12:04.681Z,34.27
2022-08-29T12:14:48.083Z,33.97
2022-08-29T12:17:24.681Z,34.46
2022-08-29T12:19:56.287Z,33.80
2022-08-29T12:22:48.003Z,33.91
2022-08-29T12:25:44.585Z,34.01
2022-08-29T12:28:27.866Z,33.20
2022-08-29T12:31:32.467Z,33.41
2022-08-29T12:34:23.422Z,34.16
2022-08-29T12:37:29.057Z,34.09
2022-08-29T12:40:43.874Z,33.50
2022-08-29T12:43:42.827Z,33.91
2022-08-29T12:46:40.219Z,34.17
2022-08-29T12:49:34.416Z,34.04
2022-08-29T12:52:07.875Z,33.61
2022-08-29T12:54:41.314Z,33.86
2022-08-29T12:57:19.721Z,34.19
2022-08-29T12:59:53.326Z,34.08
2022-08-29T13:02:39.080Z,33.78
2022-08-29T13:05:23.409Z,33.85
2022-08-29T13:08:11.107Z,34.04
2022-08-29T13:10:59.040Z,34.31
2022-08-29T13:13:27.625Z,34.48
2022-08-29T13:16:02.814Z,33.74
2022-08-29T13:18:33.763Z,33.99
2022-08-29T13:21:24.385Z,34.16
2022-08-29T13:24:04.902Z,33.95
2022-08-29T13:26:34.054Z,34.33
2022-08-29T13:29:04.068Z,34.17
2022-08-29T13:31:37.271Z,34.35
2022-08-29T13:34:07.228Z,34.17
2022-08-29T13:36:59.179Z,34.23
2022-08-29T13:39:35.115Z,34.22
2022-08-29T13:42:28.752Z,33.54
2022-08-29T13:45:08.597Z,33.50
2022-08-29T13:47:59.886Z,34.13
2022-08-29T13:50:27.920Z,33.05
2022-08-29T13:52:57.331Z,33.68
2022-08-29T13:55:24.949Z,34.17
2022-08-29T13:57:54.906Z,33.97
2022-08-29T14:00:34.826Z,34.16
2022-08-29T14:03:06.262Z,34.19
2022-08-29T14:05:35.157Z,33.56
2022-08-29T14:08:02.522Z,33.87
2022-08-29T14:10:29.462Z,33.68
2022-08-29T14:12:56.466Z,33.73
2022-08-29T14:15:23.446Z,33.78
2022-08-29T14:17:50.393Z,34.10
2022-08-29T14:20:18.876Z,33.63
2022-08-29T14:22:47.001Z,33.44
2022-08-29T14:25:18.260Z,33.82
2022-08-29T14:27:47.571Z,33.32
2022-08-29T14:30:18.640Z,33.44
2022-08-29T14:32:45.664Z,33.48
2022-08-29T14:35:25.942Z,33.59
2022-08-29T14:37:54.358Z,33.94
2022-08-29T14:40:22.091Z,33.36
2022-08-29T14:42:49.169Z,32.80
2022-08-29T14:45:16.179Z,33.70
2022-08-29T14:47:43.438Z,33.57
2022-08-29T14:50:13.983Z,33.48
2022-08-29T14:52:41.994Z,34.09
2022-08-29T14:55:10.423Z,33.63
2022-08-29T14:57:37.864Z,33.48
2022-08-29T15:00:13.030Z,33.43
2022-08-29T15:02:43.183Z,34.16
2022-08-29T15:05:11.858Z,34.11
2022-08-29T15:07:39.540Z,34.29
2022-08-29T15:10:08.649Z,34.23
2022-08-29T15:12:36.046Z,34.00
2022-08-29T15:15:03.628Z,34.20
2022-08-29T15:17:30.517Z,33.72
2022-08-29T15:20:34.714Z,34.11
2022-08-29T15:22:44.627Z,34.23
2022-08-29T15:25:11.550Z,34.33
2022-08-29T15:27:38.441Z,33.98
2022-08-29T15:30:06.750Z,33.50
2022-08-29T15:32:34.581Z,33.85
2022-08-29T15:35:01.434Z,34.01
2022-08-29T15:37:28.300Z,33.44
2022-08-29T15:39:55.241Z,34.11
2022-08-29T15:42:28.466Z,33.44
2022-08-29T15:44:56.642Z,34.02
2022-08-29T15:47:26.116Z,33.48
2022-08-29T15:49:53.812Z,34.07
2022-08-29T15:52:21.151Z,34.01
2022-08-29T15:54:48.123Z,33.96
2022-08-29T15:57:15.088Z,34.20
2022-08-29T15:59:57.546Z,34.25
2022-08-29T16:02:25.479Z,34.27
2022-08-29T16:04:56.806Z,34.32
2022-08-29T16:07:28.924Z,34.37
2022-08-29T16:09:57.666Z,33.62
2022-08-29T16:12:28.217Z,33.95
2022-08-29T16:15:00.054Z,33.74
2022-08-29T16:17:30.921Z,34.06
2022-08-29T16:20:00.406Z,34.15
2022-08-29T16:22:28.341Z,33.41
2022-08-29T16:24:55.659Z,34.15
2022-08-29T16:27:24.103Z,33.82
2022-08-29T16:29:52.739Z,34.20
2022-08-29T16:32:20.863Z,33.86
2022-08-29T16:34:47.767Z,33.74
2022-08-29T16:37:15.334Z,33.63
2022-08-29T16:39:42.181Z,34.26
2022-08-29T16:42:12.027Z,34.21
2022-08-29T16:47:15.044Z,34.17
2022-08-29T16:49:42.022Z,33.93
2022-08-29T16:52:09.110Z,33.33
2022-08-29T16:54:36.256Z,33.44
2022-08-29T16:57:03.271Z,33.60
2022-08-29T16:59:30.137Z,34.04
2022-08-29T17:01:57.065Z,33.49
2022-08-29T17:04:27.647Z,33.75
2022-08-29T17:06:55.316Z,33.94
2022-08-29T17:09:25.597Z,34.25
2022-08-29T17:11:54.098Z,33.48
2022-08-29T17:14:24.753Z,33.93
2022-08-29T17:16:53.818Z,33.55
2022-08-29T17:19:22.892Z,34.07
2022-08-29T17:21:50.371Z,34.06
2022-08-29T17:24:17.527Z,34.17
2022-08-29T17:26:47.138Z,34.51
2022-08-29T17:29:15.226Z,34.69
2022-08-29T17:31:42.389Z,34.15
2022-08-29T17:34:10.224Z,34.29
2022-08-29T17:36:40.346Z,34.18
2022-08-29T17:39:08.622Z,34.18
2022-08-29T17:41:37.348Z,34.68
2022-08-29T17:44:07.575Z,34.29
2022-08-29T17:46:35.049Z,34.38
2022-08-29T17:49:07.438Z,35.34
2022-08-29T17:51:35.499Z,34.86
2022-08-29T17:54:04.378Z,34.69
2022-08-29T17:56:47.615Z,34.62
2022-08-29T17:59:16.700Z,35.32
2022-08-29T18:01:44.886Z,35.50
2022-08-29T18:04:11.956Z,35.57
2022-08-29T18:06:39.722Z,35.49
2022-08-29T18:09:07.693Z,35.76
2022-08-29T18:11:43.980Z,35.81
2022-08-29T18:14:11.162Z,35.83
2022-08-29T18:16:38.141Z,36.27
2022-08-29T18:19:06.037Z,36.51
2022-08-29T18:21:33.398Z,36.29
2022-08-29T18:24:00.802Z,36.40
2022-08-29T18:26:28.254Z,36.58
2022-08-29T18:28:56.032Z,36.40
2022-08-29T18:31:23.656Z,36.31
2022-08-29T18:34:06.457Z,36.50
2022-08-29T18:36:36.265Z,36.48
2022-08-29T18:39:05.223Z,37.02
2022-08-29T18:41:32.337Z,36.81
2022-08-29T18:43:59.217Z,36.93
2022-08-29T18:46:28.309Z,37.28
2022-08-29T18:48:55.533Z,36.52
2022-08-29T18:51:22.386Z,36.74
2022-08-29T18:53:49.363Z,36.89
2022-08-29T18:56:16.247Z,36.93
2022-08-29T18:58:44.480Z,37.39
2022-08-29T19:01:17.818Z,37.32
2022-08-29T19:03:56.432Z,37.08
2022-08-29T19:06:25.738Z,36.84
2022-08-29T19:08:54.457Z,37.00
2022-08-29T19:11:21.439Z,37.79
2022-08-29T19:13:52.552Z,37.49
2022-08-29T19:16:22.036Z,37.86
2022-08-29T19:18:49.231Z,37.26
2022-08-29T19:21:16.388Z,37.28
2022-08-29T19:23:47.384Z,37.58
2022-08-29T19:26:28.901Z,37.20
2022-08-29T19:29:04.920Z,37.06
2022-08-29T19:31:31.956Z,37.04
2022-08-29T19:33:59.195Z,37.60
2022-08-29T19:36:27.070Z,37.46
2022-08-29T19:38:55.238Z,37.26
2022-08-29T19:41:22.531Z,37.45
2022-08-29T19:43:49.830Z,37.47
2022-08-29T19:46:21.514Z,37.80
2022-08-29T19:48:51.362Z,37.94
2022-08-29T19:51:21.917Z,37.07
2022-08-29T19:53:51.536Z,37.25
2022-08-29T19:56:18.512Z,37.81
2022-08-29T19:58:45.438Z,37.85
2022-08-29T20:01:12.444Z,36.81
2022-08-29T20:03:41.637Z,36.87
2022-08-29T20:06:09.713Z,37.26
2022-08-29T20:08:39.711Z,36.62
2022-08-29T20:11:06.808Z,36.99
2022-08-29T20:13:35.837Z,37.13
2022-08-29T20:16:03.348Z,37.79
2022-08-29T20:18:30.298Z,37.43
2022-08-29T20:20:57.198Z,37.28
2022-08-29T20:23:24.081Z,37.62
2022-08-29T20:25:50.950Z,37.66
2022-08-29T20:28:17.972Z,37.28
2022-08-29T20:30:45.196Z,37.64
2022-08-29T20:33:15.555Z,37.69
2022-08-29T20:36:00.908Z,37.28
2022-08-29T20:38:28.103Z,37.26
2022-08-29T20:40:55.016Z,37.17
2022-08-29T20:43:21.950Z,37.57
2022-08-29T20:45:49.633Z,37.87
2022-08-29T20:48:16.986Z,37.43
2022-08-29T20:50:44.372Z,37.80
2022-08-29T20:53:14.882Z,37.73
2022-08-29T20:56:00.097Z,37.81
2022-08-29T20:58:29.025Z,37.83
2022-08-29T21:00:58.163Z,38.07
2022-08-29T21:03:44.168Z,37.97
2022-08-29T21:06:11.158Z,38.59
2022-08-29T21:08:39.747Z,38.79
2022-08-29T21:11:06.695Z,38.91
2022-08-29T21:13:33.578Z,39.04
2022-08-29T21:16:01.727Z,38.52
2022-08-29T21:18:28.639Z,39.04
2022-08-29T21:20:55.596Z,39.18
2022-08-29T21:23:24.425Z,38.98
2022-08-29T21:25:58.428Z,38.84
2022-08-29T21:28:27.672Z,39.18
2022-08-29T21:30:55.285Z,38.99
2022-08-29T21:33:23.118Z,39.25
2022-08-29T21:35:50.299Z,39.00
2022-08-29T21:38:18.329Z,39.26
2022-08-29T21:40:50.757Z,39.35
2022-08-29T21:43:19.856Z,39.65
2022-08-29T21:45:47.904Z,39.34
2022-08-29T21:48:14.893Z,39.80
2022-08-29T21:50:41.992Z,39.51
2022-08-29T21:53:12.538Z,39.54
2022-08-29T21:55:39.521Z,39.75
2022-08-29T21:58:07.612Z,39.89
2022-08-29T22:00:37.080Z,40.14
2022-08-29T22:03:06.775Z,39.83
2022-08-29T22:05:33.831Z,40.06
2022-08-29T22:08:03.143Z,40.22
2022-08-29T22:10:34.988Z,40.05
2022-08-29T22:13:04.633Z,40.02
2022-08-29T22:15:50.223Z,40.18
2022-08-29T22:18:17.931Z,40.39
2022-08-29T22:20:47.462Z,40.29
2022-08-29T22:23:17.514Z,40.44
2022-08-29T22:25:47.234Z,40.72
2022-08-29T22:28:14.223Z,40.56
2022-08-29T22:30:41.207Z,40.19
2022-08-29T22:33:08.778Z,40.57
2022-08-29T22:35:43.394Z,40.81
2022-08-29T22:38:10.347Z,41.02
2022-08-29T22:40:37.323Z,41.47
2022-08-29T22:43:04.400Z,41.47
2022-08-29T22:45:32.214Z,41.56
2022-08-29T22:47:59.075Z,41.72
2022-08-29T22:50:27.003Z,41.60
2022-08-29T22:52:58.965Z,41.67
2022-08-29T22:57:52.026Z,42.53
2022-08-29T23:00:23.815Z,42.21
2022-08-29T23:02:52.643Z,42.55
2022-08-29T23:05:21.617Z,42.67
2022-08-29T23:07:48.475Z,42.88
2022-08-29T23:10:15.796Z,42.93
2022-08-29T23:12:42.815Z,42.95
2022-08-29T23:15:17.517Z,43.26
2022-08-29T23:17:45.062Z,43.10
2022-08-29T23:20:14.642Z,43.36
2022-08-29T23:22:43.000Z,43.68
2022-08-29T23:25:12.246Z,43.90
2022-08-29T23:27:39.411Z,43.92
2022-08-29T23:30:10.667Z,43.86
2022-08-29T23:32:38.186Z,44.01
2022-08-29T23:35:07.224Z,44.44
2022-08-29T23:37:34.652Z,44.70
2022-08-29T23:40:02.435Z,44.58
2022-08-29T23:42:29.399Z,44.37
2022-08-29T23:44:56.854Z,44.53
2022-08-29T23:47:23.691Z,44.43
2022-08-29T23:49:50.598Z,44.38
2022-08-29T23:52:17.889Z,44.76
2022-08-29T23:54:44.778Z,44.81
2022-08-29T23:57:11.881Z,44.78
2022-08-29T23:59:57.189Z,45.17
